sensor_id;sensor_type;location;lat;lon;timestamp;P1;durP1;ratioP1;P2;durP2;ratioP2
22490;SDS011;11412;50.802;4.350;2023-05-10T00:02:06;13.00;;;6.40;;
22490;SDS011;11412;50.802;4.350;2023-05-10T00:04:32;11.65;;;6.47;;
22490;SDS011;11412;50.802;4.350;2023-05-10T00:06:58;9.75;;;6.60;;
22490;SDS011;11412;50.802;4.350;2023-05-10T00:09:24;11.60;;;6.32;;
22490;SDS011;11412;50.802;4.350;2023-05-10T00:11:50;11.55;;;6.10;;
22490;SDS011;11412;50.802;4.350;2023-05-10T00:14:15;7.53;;;6.10;;
22490;SDS011;11412;50.802;4.350;2023-05-10T00:16:41;10.07;;;6.35;;
22490;SDS011;11412;50.802;4.350;2023-05-10T00:19:07;9.45;;;6.05;;
22490;SDS011;11412;50.802;4.350;2023-05-10T00:21:33;12.25;;;5.80;;
22490;SDS011;11412;50.802;4.350;2023-05-10T00:23:58;9.95;;;6.25;;
22490;SDS011;11412;50.802;4.350;2023-05-10T00:26:24;10.43;;;6.43;;
22490;SDS011;11412;50.802;4.350;2023-05-10T00:28:50;9.57;;;6.97;;
22490;SDS011;11412;50.802;4.350;2023-05-10T00:31:16;10.05;;;5.75;;
22490;SDS011;11412;50.802;4.350;2023-05-10T00:33:41;9.00;;;5.97;;
22490;SDS011;11412;50.802;4.350;2023-05-10T00:36:07;7.57;;;6.13;;
22490;SDS011;11412;50.802;4.350;2023-05-10T00:38:33;8.68;;;6.28;;
22490;SDS011;11412;50.802;4.350;2023-05-10T00:40:59;12.27;;;7.07;;
22490;SDS011;11412;50.802;4.350;2023-05-10T00:43:24;7.47;;;5.60;;
22490;SDS011;11412;50.802;4.350;2023-05-10T00:45:50;9.70;;;6.97;;
22490;SDS011;11412;50.802;4.350;2023-05-10T00:48:17;9.73;;;7.10;;
22490;SDS011;11412;50.802;4.350;2023-05-10T00:50:43;12.25;;;7.03;;
22490;SDS011;11412;50.802;4.350;2023-05-10T00:53:10;9.60;;;6.78;;
22490;SDS011;11412;50.802;4.350;2023-05-10T00:55:36;10.40;;;6.85;;
22490;SDS011;11412;50.802;4.350;2023-05-10T00:58:02;10.63;;;6.75;;
22490;SDS011;11412;50.802;4.350;2023-05-10T01:00:28;9.07;;;6.60;;
22490;SDS011;11412;50.802;4.350;2023-05-10T01:02:54;10.48;;;7.53;;
22490;SDS011;11412;50.802;4.350;2023-05-10T01:05:20;12.20;;;7.18;;
22490;SDS011;11412;50.802;4.350;2023-05-10T01:07:46;13.02;;;6.70;;
22490;SDS011;11412;50.802;4.350;2023-05-10T01:10:13;10.85;;;6.88;;
22490;SDS011;11412;50.802;4.350;2023-05-10T01:12:39;8.88;;;7.10;;
22490;SDS011;11412;50.802;4.350;2023-05-10T01:15:07;9.75;;;7.07;;
22490;SDS011;11412;50.802;4.350;2023-05-10T01:17:37;8.07;;;7.18;;
22490;SDS011;11412;50.802;4.350;2023-05-10T01:20:06;12.10;;;7.03;;
22490;SDS011;11412;50.802;4.350;2023-05-10T01:27:48;13.68;;;8.05;;
22490;SDS011;11412;50.802;4.350;2023-05-10T01:30:31;12.15;;;8.25;;
22490;SDS011;11412;50.802;4.350;2023-05-10T01:38:38;13.63;;;8.70;;
22490;SDS011;11412;50.802;4.350;2023-05-10T01:44:57;13.25;;;9.05;;
22490;SDS011;11412;50.802;4.350;2023-05-10T01:47:01;13.68;;;9.13;;
22490;SDS011;11412;50.802;4.350;2023-05-10T01:49:34;10.63;;;8.27;;
22490;SDS011;11412;50.802;4.350;2023-05-10T01:52:06;14.82;;;8.77;;
22490;SDS011;11412;50.802;4.350;2023-05-10T01:54:35;15.52;;;8.73;;
22490;SDS011;11412;50.802;4.350;2023-05-10T01:57:06;10.93;;;8.88;;
22490;SDS011;11412;50.802;4.350;2023-05-10T01:59:35;14.52;;;9.40;;
22490;SDS011;11412;50.802;4.350;2023-05-10T02:02:06;11.82;;;9.18;;
22490;SDS011;11412;50.802;4.350;2023-05-10T02:04:37;13.88;;;9.07;;
22490;SDS011;11412;50.802;4.350;2023-05-10T02:07:05;13.10;;;9.13;;
22490;SDS011;11412;50.802;4.350;2023-05-10T02:09:33;13.73;;;9.82;;
22490;SDS011;11412;50.802;4.350;2023-05-10T02:12:01;12.32;;;9.30;;
22490;SDS011;11412;50.802;4.350;2023-05-10T02:14:30;11.10;;;9.02;;
22490;SDS011;11412;50.802;4.350;2023-05-10T02:16:59;18.13;;;9.38;;
22490;SDS011;11412;50.802;4.350;2023-05-10T02:19:27;14.35;;;9.13;;
22490;SDS011;11412;50.802;4.350;2023-05-10T02:21:54;14.00;;;8.38;;
22490;SDS011;11412;50.802;4.350;2023-05-10T02:24:21;14.63;;;9.13;;
22490;SDS011;11412;50.802;4.350;2023-05-10T02:26:49;9.82;;;7.82;;
22490;SDS011;11412;50.802;4.350;2023-05-10T02:29:18;10.43;;;7.72;;
22490;SDS011;11412;50.802;4.350;2023-05-10T02:31:45;10.50;;;7.97;;
22490;SDS011;11412;50.802;4.350;2023-05-10T02:34:11;11.48;;;7.50;;
22490;SDS011;11412;50.802;4.350;2023-05-10T02:36:38;13.32;;;8.00;;
22490;SDS011;11412;50.802;4.350;2023-05-10T02:39:06;12.85;;;7.47;;
22490;SDS011;11412;50.802;4.350;2023-05-10T02:41:35;11.77;;;7.57;;
22490;SDS011;11412;50.802;4.350;2023-05-10T02:44:01;11.27;;;7.65;;
22490;SDS011;11412;50.802;4.350;2023-05-10T02:46:28;11.48;;;7.45;;
22490;SDS011;11412;50.802;4.350;2023-05-10T02:48:54;8.38;;;6.45;;
22490;SDS011;11412;50.802;4.350;2023-05-10T02:51:20;11.18;;;7.70;;
22490;SDS011;11412;50.802;4.350;2023-05-10T02:53:52;9.55;;;7.53;;
22490;SDS011;11412;50.802;4.350;2023-05-10T02:56:23;9.75;;;7.38;;
22490;SDS011;11412;50.802;4.350;2023-05-10T02:58:59;9.38;;;7.15;;
22490;SDS011;11412;50.802;4.350;2023-05-10T03:01:25;12.23;;;7.25;;
22490;SDS011;11412;50.802;4.350;2023-05-10T03:03:50;11.32;;;7.00;;
22490;SDS011;11412;50.802;4.350;2023-05-10T03:06:16;11.50;;;7.00;;
22490;SDS011;11412;50.802;4.350;2023-05-10T03:08:42;19.30;;;7.85;;
22490;SDS011;11412;50.802;4.350;2023-05-10T03:11:30;12.07;;;8.23;;
22490;SDS011;11412;50.802;4.350;2023-05-10T03:16:52;13.57;;;8.50;;
22490;SDS011;11412;50.802;4.350;2023-05-10T03:19:32;9.95;;;8.05;;
22490;SDS011;11412;50.802;4.350;2023-05-10T03:22:10;11.77;;;9.27;;
22490;SDS011;11412;50.802;4.350;2023-05-10T03:24:40;17.15;;;9.30;;
22490;SDS011;11412;50.802;4.350;2023-05-10T03:27:07;14.25;;;9.23;;
22490;SDS011;11412;50.802;4.350;2023-05-10T03:29:33;11.82;;;8.48;;
22490;SDS011;11412;50.802;4.350;2023-05-10T03:31:59;14.55;;;9.23;;
22490;SDS011;11412;50.802;4.350;2023-05-10T03:34:25;15.25;;;9.70;;
22490;SDS011;11412;50.802;4.350;2023-05-10T03:36:51;16.63;;;9.32;;
22490;SDS011;11412;50.802;4.350;2023-05-10T03:39:17;11.43;;;8.70;;
22490;SDS011;11412;50.802;4.350;2023-05-10T03:41:43;14.40;;;9.50;;
22490;SDS011;11412;50.802;4.350;2023-05-10T03:44:08;14.27;;;9.75;;
22490;SDS011;11412;50.802;4.350;2023-05-10T03:46:34;14.70;;;9.35;;
22490;SDS011;11412;50.802;4.350;2023-05-10T03:49:00;11.40;;;9.63;;
22490;SDS011;11412;50.802;4.350;2023-05-10T03:51:25;13.98;;;10.05;;
22490;SDS011;11412;50.802;4.350;2023-05-10T03:53:53;16.48;;;10.18;;
22490;SDS011;11412;50.802;4.350;2023-05-10T03:56:19;16.58;;;9.60;;
22490;SDS011;11412;50.802;4.350;2023-05-10T03:58:45;16.50;;;10.00;;
22490;SDS011;11412;50.802;4.350;2023-05-10T04:01:11;16.67;;;10.23;;
22490;SDS011;11412;50.802;4.350;2023-05-10T04:03:37;15.48;;;9.95;;
22490;SDS011;11412;50.802;4.350;2023-05-10T04:06:03;16.67;;;10.30;;
22490;SDS011;11412;50.802;4.350;2023-05-10T04:08:29;18.70;;;11.10;;
22490;SDS011;11412;50.802;4.350;2023-05-10T04:11:04;15.38;;;10.63;;
22490;SDS011;11412;50.802;4.350;2023-05-10T04:13:31;17.40;;;10.75;;
22490;SDS011;11412;50.802;4.350;2023-05-10T04:15:57;18.83;;;11.15;;
22490;SDS011;11412;50.802;4.350;2023-05-10T04:18:23;13.10;;;10.65;;
22490;SDS011;11412;50.802;4.350;2023-05-10T04:20:48;18.75;;;10.90;;
22490;SDS011;11412;50.802;4.350;2023-05-10T04:23:14;15.98;;;10.70;;
22490;SDS011;11412;50.802;4.350;2023-05-10T04:25:41;18.95;;;11.70;;
22490;SDS011;11412;50.802;4.350;2023-05-10T04:28:07;16.90;;;10.82;;
22490;SDS011;11412;50.802;4.350;2023-05-10T04:30:33;14.82;;;9.77;;
22490;SDS011;11412;50.802;4.350;2023-05-10T04:32:59;13.13;;;9.55;;
22490;SDS011;11412;50.802;4.350;2023-05-10T04:35:27;9.43;;;7.97;;
22490;SDS011;11412;50.802;4.350;2023-05-10T04:37:53;11.82;;;8.45;;
22490;SDS011;11412;50.802;4.350;2023-05-10T04:40:19;13.18;;;8.00;;
22490;SDS011;11412;50.802;4.350;2023-05-10T04:42:45;10.90;;;7.53;;
22490;SDS011;11412;50.802;4.350;2023-05-10T04:45:11;10.13;;;7.47;;
22490;SDS011;11412;50.802;4.350;2023-05-10T04:47:39;12.23;;;7.72;;
22490;SDS011;11412;50.802;4.350;2023-05-10T04:50:05;8.43;;;7.30;;
22490;SDS011;11412;50.802;4.350;2023-05-10T04:52:32;10.25;;;7.43;;
22490;SDS011;11412;50.802;4.350;2023-05-10T04:54:58;11.18;;;7.93;;
22490;SDS011;11412;50.802;4.350;2023-05-10T04:57:23;14.75;;;7.35;;
22490;SDS011;11412;50.802;4.350;2023-05-10T04:59:49;9.38;;;6.75;;
22490;SDS011;11412;50.802;4.350;2023-05-10T05:02:15;9.25;;;6.72;;
22490;SDS011;11412;50.802;4.350;2023-05-10T05:04:41;10.43;;;7.13;;
22490;SDS011;11412;50.802;4.350;2023-05-10T05:07:06;7.45;;;6.68;;
22490;SDS011;11412;50.802;4.350;2023-05-10T05:09:32;8.98;;;6.70;;
22490;SDS011;11412;50.802;4.350;2023-05-10T05:11:58;14.80;;;6.50;;
22490;SDS011;11412;50.802;4.350;2023-05-10T05:14:23;10.45;;;6.65;;
22490;SDS011;11412;50.802;4.350;2023-05-10T05:16:52;11.32;;;7.82;;
22490;SDS011;11412;50.802;4.350;2023-05-10T05:19:18;10.57;;;7.03;;
22490;SDS011;11412;50.802;4.350;2023-05-10T05:21:43;11.85;;;7.85;;
22490;SDS011;11412;50.802;4.350;2023-05-10T05:24:09;12.95;;;8.93;;
22490;SDS011;11412;50.802;4.350;2023-05-10T05:26:36;11.65;;;8.20;;
22490;SDS011;11412;50.802;4.350;2023-05-10T05:29:02;13.18;;;8.43;;
22490;SDS011;11412;50.802;4.350;2023-05-10T05:31:28;13.90;;;8.43;;
22490;SDS011;11412;50.802;4.350;2023-05-10T05:33:54;12.77;;;8.05;;
22490;SDS011;11412;50.802;4.350;2023-05-10T05:36:20;11.15;;;7.78;;
22490;SDS011;11412;50.802;4.350;2023-05-10T05:38:46;9.85;;;7.90;;
22490;SDS011;11412;50.802;4.350;2023-05-10T05:41:12;15.10;;;7.75;;
22490;SDS011;11412;50.802;4.350;2023-05-10T05:43:37;11.35;;;7.18;;
22490;SDS011;11412;50.802;4.350;2023-05-10T05:46:03;10.85;;;7.70;;
22490;SDS011;11412;50.802;4.350;2023-05-10T05:48:29;12.30;;;6.72;;
22490;SDS011;11412;50.802;4.350;2023-05-10T05:50:57;12.18;;;6.93;;
22490;SDS011;11412;50.802;4.350;2023-05-10T05:53:22;12.63;;;6.78;;
22490;SDS011;11412;50.802;4.350;2023-05-10T05:55:52;10.45;;;6.30;;
22490;SDS011;11412;50.802;4.350;2023-05-10T05:58:19;12.52;;;6.13;;
22490;SDS011;11412;50.802;4.350;2023-05-10T06:00:45;12.18;;;6.43;;
22490;SDS011;11412;50.802;4.350;2023-05-10T06:03:11;8.23;;;6.03;;
22490;SDS011;11412;50.802;4.350;2023-05-10T06:05:37;9.30;;;5.47;;
22490;SDS011;11412;50.802;4.350;2023-05-10T06:08:02;7.38;;;5.10;;
22490;SDS011;11412;50.802;4.350;2023-05-10T06:10:28;5.95;;;5.13;;
22490;SDS011;11412;50.802;4.350;2023-05-10T06:12:55;11.25;;;5.13;;
22490;SDS011;11412;50.802;4.350;2023-05-10T06:15:21;8.10;;;5.40;;
22490;SDS011;11412;50.802;4.350;2023-05-10T06:17:47;8.95;;;4.22;;
22490;SDS011;11412;50.802;4.350;2023-05-10T06:20:14;9.73;;;5.72;;
22490;SDS011;11412;50.802;4.350;2023-05-10T06:22:41;6.93;;;5.03;;
22490;SDS011;11412;50.802;4.350;2023-05-10T06:25:07;7.25;;;5.13;;
22490;SDS011;11412;50.802;4.350;2023-05-10T06:27:33;5.65;;;4.88;;
22490;SDS011;11412;50.802;4.350;2023-05-10T06:29:59;11.07;;;4.93;;
22490;SDS011;11412;50.802;4.350;2023-05-10T06:32:25;7.63;;;4.68;;
22490;SDS011;11412;50.802;4.350;2023-05-10T06:34:50;8.30;;;4.70;;
22490;SDS011;11412;50.802;4.350;2023-05-10T06:37:17;6.88;;;4.95;;
22490;SDS011;11412;50.802;4.350;2023-05-10T06:39:42;5.20;;;4.70;;
22490;SDS011;11412;50.802;4.350;2023-05-10T06:42:08;5.05;;;4.05;;
22490;SDS011;11412;50.802;4.350;2023-05-10T06:44:34;4.70;;;4.15;;
22490;SDS011;11412;50.802;4.350;2023-05-10T06:47:00;4.38;;;3.97;;
22490;SDS011;11412;50.802;4.350;2023-05-10T06:49:25;4.78;;;3.80;;
22490;SDS011;11412;50.802;4.350;2023-05-10T06:51:51;5.50;;;3.97;;
22490;SDS011;11412;50.802;4.350;2023-05-10T06:54:17;5.95;;;3.88;;
22490;SDS011;11412;50.802;4.350;2023-05-10T06:56:43;4.72;;;3.58;;
22490;SDS011;11412;50.802;4.350;2023-05-10T06:59:09;4.50;;;4.10;;
22490;SDS011;11412;50.802;4.350;2023-05-10T07:01:34;4.28;;;3.88;;
22490;SDS011;11412;50.802;4.350;2023-05-10T07:04:00;4.88;;;4.43;;
22490;SDS011;11412;50.802;4.350;2023-05-10T07:06:26;7.60;;;5.15;;
22490;SDS011;11412;50.802;4.350;2023-05-10T07:08:52;4.80;;;4.13;;
22490;SDS011;11412;50.802;4.350;2023-05-10T07:11:18;10.30;;;4.55;;
22490;SDS011;11412;50.802;4.350;2023-05-10T07:13:43;6.28;;;4.70;;
22490;SDS011;11412;50.802;4.350;2023-05-10T07:16:11;9.25;;;4.95;;
22490;SDS011;11412;50.802;4.350;2023-05-10T07:18:37;6.57;;;4.80;;
22490;SDS011;11412;50.802;4.350;2023-05-10T07:21:02;9.93;;;5.10;;
22490;SDS011;11412;50.802;4.350;2023-05-10T07:23:28;8.45;;;4.70;;
22490;SDS011;11412;50.802;4.350;2023-05-10T07:25:54;8.60;;;5.35;;
22490;SDS011;11412;50.802;4.350;2023-05-10T07:28:22;7.93;;;5.53;;
22490;SDS011;11412;50.802;4.350;2023-05-10T07:30:49;8.40;;;5.93;;
22490;SDS011;11412;50.802;4.350;2023-05-10T07:33:15;7.60;;;5.35;;
22490;SDS011;11412;50.802;4.350;2023-05-10T07:35:41;9.60;;;6.35;;
22490;SDS011;11412;50.802;4.350;2023-05-10T07:38:08;8.20;;;5.75;;
22490;SDS011;11412;50.802;4.350;2023-05-10T07:40:33;6.20;;;5.40;;
22490;SDS011;11412;50.802;4.350;2023-05-10T07:42:59;12.85;;;5.60;;
22490;SDS011;11412;50.802;4.350;2023-05-10T07:45:26;6.55;;;5.03;;
22490;SDS011;11412;50.802;4.350;2023-05-10T07:47:52;7.28;;;5.22;;
22490;SDS011;11412;50.802;4.350;2023-05-10T07:50:18;7.28;;;4.93;;
22490;SDS011;11412;50.802;4.350;2023-05-10T07:52:44;7.90;;;4.35;;
22490;SDS011;11412;50.802;4.350;2023-05-10T07:55:10;4.63;;;4.22;;
22490;SDS011;11412;50.802;4.350;2023-05-10T07:57:36;6.55;;;4.47;;
22490;SDS011;11412;50.802;4.350;2023-05-10T08:00:02;6.72;;;4.20;;
22490;SDS011;11412;50.802;4.350;2023-05-10T08:02:27;5.65;;;3.97;;
22490;SDS011;11412;50.802;4.350;2023-05-10T08:04:53;4.65;;;3.80;;
22490;SDS011;11412;50.802;4.350;2023-05-10T08:07:21;4.30;;;3.80;;
22490;SDS011;11412;50.802;4.350;2023-05-10T08:09:46;4.25;;;3.60;;
22490;SDS011;11412;50.802;4.350;2023-05-10T08:12:12;3.10;;;2.90;;
22490;SDS011;11412;50.802;4.350;2023-05-10T08:14:38;4.10;;;3.15;;
22490;SDS011;11412;50.802;4.350;2023-05-10T08:17:04;3.95;;;3.53;;
22490;SDS011;11412;50.802;4.350;2023-05-10T08:19:29;4.38;;;3.22;;
22490;SDS011;11412;50.802;4.350;2023-05-10T08:21:55;4.15;;;3.13;;
22490;SDS011;11412;50.802;4.350;2023-05-10T08:24:21;5.43;;;3.35;;
22490;SDS011;11412;50.802;4.350;2023-05-10T08:26:47;3.50;;;3.20;;
22490;SDS011;11412;50.802;4.350;2023-05-10T08:29:14;3.30;;;2.92;;
22490;SDS011;11412;50.802;4.350;2023-05-10T08:31:39;3.17;;;2.88;;
22490;SDS011;11412;50.802;4.350;2023-05-10T08:34:05;3.33;;;3.13;;
22490;SDS011;11412;50.802;4.350;2023-05-10T08:36:31;9.70;;;4.55;;
22490;SDS011;11412;50.802;4.350;2023-05-10T08:38:57;4.68;;;3.70;;
22490;SDS011;11412;50.802;4.350;2023-05-10T08:41:23;3.35;;;3.00;;
22490;SDS011;11412;50.802;4.350;2023-05-10T08:43:51;4.47;;;3.92;;
22490;SDS011;11412;50.802;4.350;2023-05-10T08:46:18;3.70;;;3.40;;
22490;SDS011;11412;50.802;4.350;2023-05-10T08:48:45;3.90;;;3.42;;
22490;SDS011;11412;50.802;4.350;2023-05-10T08:51:15;4.78;;;3.60;;
22490;SDS011;11412;50.802;4.350;2023-05-10T08:53:43;5.05;;;4.20;;
22490;SDS011;11412;50.802;4.350;2023-05-10T08:56:10;4.70;;;4.20;;
22490;SDS011;11412;50.802;4.350;2023-05-10T08:58:36;3.92;;;3.63;;
22490;SDS011;11412;50.802;4.350;2023-05-10T09:01:03;4.93;;;3.90;;
22490;SDS011;11412;50.802;4.350;2023-05-10T09:03:30;4.20;;;3.58;;
22490;SDS011;11412;50.802;4.350;2023-05-10T09:05:56;4.97;;;3.85;;
22490;SDS011;11412;50.802;4.350;2023-05-10T09:08:23;3.50;;;3.30;;
22490;SDS011;11412;50.802;4.350;2023-05-10T09:10:52;4.18;;;3.70;;
22490;SDS011;11412;50.802;4.350;2023-05-10T09:13:19;4.93;;;3.92;;
22490;SDS011;11412;50.802;4.350;2023-05-10T09:15:46;4.15;;;3.78;;
22490;SDS011;11412;50.802;4.350;2023-05-10T09:18:13;5.95;;;4.68;;
22490;SDS011;11412;50.802;4.350;2023-05-10T09:20:39;5.18;;;4.10;;
22490;SDS011;11412;50.802;4.350;2023-05-10T09:23:05;3.75;;;3.40;;
22490;SDS011;11412;50.802;4.350;2023-05-10T09:25:31;3.78;;;3.40;;
22490;SDS011;11412;50.802;4.350;2023-05-10T09:27:58;3.80;;;3.50;;
22490;SDS011;11412;50.802;4.350;2023-05-10T09:30:28;3.90;;;3.60;;
22490;SDS011;11412;50.802;4.350;2023-05-10T09:32:56;4.25;;;3.85;;
22490;SDS011;11412;50.802;4.350;2023-05-10T09:35:24;6.03;;;4.20;;
22490;SDS011;11412;50.802;4.350;2023-05-10T09:37:52;3.63;;;3.35;;
22490;SDS011;11412;50.802;4.350;2023-05-10T09:40:20;3.60;;;3.30;;
22490;SDS011;11412;50.802;4.350;2023-05-10T09:43:00;3.33;;;3.13;;
22490;SDS011;11412;50.802;4.350;2023-05-10T09:45:28;3.58;;;3.35;;
22490;SDS011;11412;50.802;4.350;2023-05-10T09:47:55;3.47;;;3.20;;
22490;SDS011;11412;50.802;4.350;2023-05-10T09:50:23;3.38;;;3.10;;
22490;SDS011;11412;50.802;4.350;2023-05-10T09:52:50;4.03;;;3.10;;
22490;SDS011;11412;50.802;4.350;2023-05-10T09:55:21;3.15;;;2.85;;
22490;SDS011;11412;50.802;4.350;2023-05-10T09:57:48;4.53;;;3.58;;
22490;SDS011;11412;50.802;4.350;2023-05-10T10:00:23;3.47;;;3.17;;
22490;SDS011;11412;50.802;4.350;2023-05-10T10:02:58;3.75;;;3.40;;
22490;SDS011;11412;50.802;4.350;2023-05-10T10:05:31;3.58;;;3.00;;
22490;SDS011;11412;50.802;4.350;2023-05-10T10:07:59;3.85;;;3.53;;
22490;SDS011;11412;50.802;4.350;2023-05-10T10:10:26;4.47;;;3.50;;
22490;SDS011;11412;50.802;4.350;2023-05-10T10:12:53;3.45;;;3.25;;
22490;SDS011;11412;50.802;4.350;2023-05-10T10:15:22;3.90;;;3.58;;
22490;SDS011;11412;50.802;4.350;2023-05-10T10:17:49;3.85;;;3.30;;
22490;SDS011;11412;50.802;4.350;2023-05-10T10:20:16;4.30;;;3.42;;
22490;SDS011;11412;50.802;4.350;2023-05-10T10:22:43;4.40;;;4.05;;
22490;SDS011;11412;50.802;4.350;2023-05-10T10:25:10;4.22;;;3.72;;
22490;SDS011;11412;50.802;4.350;2023-05-10T10:36:05;3.97;;;3.58;;
22490;SDS011;11412;50.802;4.350;2023-05-10T10:38:38;3.47;;;3.20;;
22490;SDS011;11412;50.802;4.350;2023-05-10T10:41:31;3.47;;;3.17;;
22490;SDS011;11412;50.802;4.350;2023-05-10T10:52:40;4.60;;;4.20;;
22490;SDS011;11412;50.802;4.350;2023-05-10T10:55:09;4.75;;;4.22;;
22490;SDS011;11412;50.802;4.350;2023-05-10T11:00:23;3.95;;;3.55;;
22490;SDS011;11412;50.802;4.350;2023-05-10T11:10:38;4.55;;;4.05;;
22490;SDS011;11412;50.802;4.350;2023-05-10T11:15:40;5.13;;;3.53;;
22490;SDS011;11412;50.802;4.350;2023-05-10T11:18:20;5.57;;;3.50;;
22490;SDS011;11412;50.802;4.350;2023-05-10T11:20:55;4.18;;;3.78;;
22490;SDS011;11412;50.802;4.350;2023-05-10T11:23:23;5.40;;;3.70;;
22490;SDS011;11412;50.802;4.350;2023-05-10T11:25:54;4.15;;;3.78;;
22490;SDS011;11412;50.802;4.350;2023-05-10T11:28:20;3.85;;;3.55;;
22490;SDS011;11412;50.802;4.350;2023-05-10T11:30:46;3.60;;;3.30;;
22490;SDS011;11412;50.802;4.350;2023-05-10T11:33:16;4.30;;;3.97;;
22490;SDS011;11412;50.802;4.350;2023-05-10T11:35:43;3.78;;;3.45;;
22490;SDS011;11412;50.802;4.350;2023-05-10T11:38:12;4.50;;;4.10;;
22490;SDS011;11412;50.802;4.350;2023-05-10T11:40:38;4.35;;;3.92;;
22490;SDS011;11412;50.802;4.350;2023-05-10T11:43:04;4.22;;;3.88;;
22490;SDS011;11412;50.802;4.350;2023-05-10T11:45:34;5.15;;;3.47;;
22490;SDS011;11412;50.802;4.350;2023-05-10T11:48:00;4.25;;;3.95;;
22490;SDS011;11412;50.802;4.350;2023-05-10T11:50:27;4.22;;;3.53;;
22490;SDS011;11412;50.802;4.350;2023-05-10T11:52:57;4.15;;;3.40;;
22490;SDS011;11412;50.802;4.350;2023-05-10T11:55:23;3.63;;;3.33;;
22490;SDS011;11412;50.802;4.350;2023-05-10T11:57:53;3.95;;;3.65;;
22490;SDS011;11412;50.802;4.350;2023-05-10T12:00:19;3.80;;;3.50;;
22490;SDS011;11412;50.802;4.350;2023-05-10T12:02:45;4.20;;;3.90;;
22490;SDS011;11412;50.802;4.350;2023-05-10T12:05:11;3.22;;;3.03;;
22490;SDS011;11412;50.802;4.350;2023-05-10T12:07:38;4.25;;;3.95;;
22490;SDS011;11412;50.802;4.350;2023-05-10T12:12:45;4.43;;;4.05;;
22490;SDS011;11412;50.802;4.350;2023-05-10T12:17:44;4.40;;;4.00;;
22490;SDS011;11412;50.802;4.350;2023-05-10T12:20:17;4.68;;;3.83;;
22490;SDS011;11412;50.802;4.350;2023-05-10T12:22:49;4.38;;;3.97;;
22490;SDS011;11412;50.802;4.350;2023-05-10T12:25:20;4.68;;;4.10;;
22490;SDS011;11412;50.802;4.350;2023-05-10T12:27:51;4.68;;;4.13;;
22490;SDS011;11412;50.802;4.350;2023-05-10T12:30:20;7.57;;;4.32;;
22490;SDS011;11412;50.802;4.350;2023-05-10T12:32:47;5.05;;;4.75;;
22490;SDS011;11412;50.802;4.350;2023-05-10T12:35:13;5.47;;;4.50;;
22490;SDS011;11412;50.802;4.350;2023-05-10T12:37:38;4.70;;;4.30;;
22490;SDS011;11412;50.802;4.350;2023-05-10T12:40:08;6.00;;;4.57;;
22490;SDS011;11412;50.802;4.350;2023-05-10T12:42:36;6.10;;;4.90;;
22490;SDS011;11412;50.802;4.350;2023-05-10T12:45:03;5.38;;;4.88;;
22490;SDS011;11412;50.802;4.350;2023-05-10T12:47:30;7.78;;;5.55;;
22490;SDS011;11412;50.802;4.350;2023-05-10T12:49:57;5.88;;;4.80;;
22490;SDS011;11412;50.802;4.350;2023-05-10T12:52:24;7.32;;;5.15;;
22490;SDS011;11412;50.802;4.350;2023-05-10T12:54:51;4.75;;;4.45;;
22490;SDS011;11412;50.802;4.350;2023-05-10T12:57:17;4.47;;;4.07;;
22490;SDS011;11412;50.802;4.350;2023-05-10T12:59:43;5.45;;;4.63;;
22490;SDS011;11412;50.802;4.350;2023-05-10T13:02:09;5.38;;;4.88;;
22490;SDS011;11412;50.802;4.350;2023-05-10T13:04:35;3.60;;;3.30;;
22490;SDS011;11412;50.802;4.350;2023-05-10T13:07:04;3.28;;;3.08;;
22490;SDS011;11412;50.802;4.350;2023-05-10T13:09:31;3.30;;;2.97;;
22490;SDS011;11412;50.802;4.350;2023-05-10T13:11:56;2.90;;;2.72;;
22490;SDS011;11412;50.802;4.350;2023-05-10T13:14:22;3.30;;;3.10;;
22490;SDS011;11412;50.802;4.350;2023-05-10T13:16:48;3.10;;;2.65;;
22490;SDS011;11412;50.802;4.350;2023-05-10T13:19:14;3.10;;;2.53;;
22490;SDS011;11412;50.802;4.350;2023-05-10T13:21:40;3.30;;;3.00;;
22490;SDS011;11412;50.802;4.350;2023-05-10T13:24:06;3.05;;;2.88;;
22490;SDS011;11412;50.802;4.350;2023-05-10T13:26:32;3.00;;;2.80;;
22490;SDS011;11412;50.802;4.350;2023-05-10T13:28:58;7.65;;;6.63;;
22490;SDS011;11412;50.802;4.350;2023-05-10T13:31:24;7.03;;;6.38;;
22490;SDS011;11412;50.802;4.350;2023-05-10T13:33:50;7.75;;;5.00;;
22490;SDS011;11412;50.802;4.350;2023-05-10T13:36:16;6.78;;;5.05;;
22490;SDS011;11412;50.802;4.350;2023-05-10T13:38:41;6.38;;;5.72;;
22490;SDS011;11412;50.802;4.350;2023-05-10T13:41:07;5.93;;;5.10;;
22490;SDS011;11412;50.802;4.350;2023-05-10T13:43:33;5.75;;;4.63;;
22490;SDS011;11412;50.802;4.350;2023-05-10T13:45:58;6.85;;;5.13;;
22490;SDS011;11412;50.802;4.350;2023-05-10T13:48:24;5.75;;;5.10;;
22490;SDS011;11412;50.802;4.350;2023-05-10T13:50:50;4.95;;;4.32;;
22490;SDS011;11412;50.802;4.350;2023-05-10T13:53:16;5.82;;;4.30;;
22490;SDS011;11412;50.802;4.350;2023-05-10T13:55:41;5.80;;;5.03;;
22490;SDS011;11412;50.802;4.350;2023-05-10T13:58:07;6.85;;;5.75;;
22490;SDS011;11412;50.802;4.350;2023-05-10T14:00:33;7.32;;;6.47;;
22490;SDS011;11412;50.802;4.350;2023-05-10T14:02:59;6.40;;;5.80;;
22490;SDS011;11412;50.802;4.350;2023-05-10T14:05:24;10.90;;;6.25;;
22490;SDS011;11412;50.802;4.350;2023-05-10T14:07:50;9.05;;;6.40;;
22490;SDS011;11412;50.802;4.350;2023-05-10T14:10:16;7.82;;;6.28;;
22490;SDS011;11412;50.802;4.350;2023-05-10T14:12:42;7.30;;;6.47;;
22490;SDS011;11412;50.802;4.350;2023-05-10T14:15:07;7.57;;;6.60;;
22490;SDS011;11412;50.802;4.350;2023-05-10T14:17:35;7.32;;;6.60;;
22490;SDS011;11412;50.802;4.350;2023-05-10T14:20:01;7.32;;;6.63;;
22490;SDS011;11412;50.802;4.350;2023-05-10T14:22:27;8.63;;;7.25;;
22490;SDS011;11412;50.802;4.350;2023-05-10T14:24:53;10.35;;;7.18;;
22490;SDS011;11412;50.802;4.350;2023-05-10T14:27:19;10.25;;;7.60;;
22490;SDS011;11412;50.802;4.350;2023-05-10T14:29:44;8.77;;;7.15;;
22490;SDS011;11412;50.802;4.350;2023-05-10T14:32:10;8.90;;;7.57;;
22490;SDS011;11412;50.802;4.350;2023-05-10T14:34:36;8.77;;;7.30;;
22490;SDS011;11412;50.802;4.350;2023-05-10T14:37:02;7.90;;;7.10;;
22490;SDS011;11412;50.802;4.350;2023-05-10T14:39:27;7.22;;;6.53;;
22490;SDS011;11412;50.802;4.350;2023-05-10T14:41:56;8.75;;;7.05;;
22490;SDS011;11412;50.802;4.350;2023-05-10T14:44:21;9.82;;;7.85;;
22490;SDS011;11412;50.802;4.350;2023-05-10T14:46:47;9.43;;;7.20;;
22490;SDS011;11412;50.802;4.350;2023-05-10T14:49:14;12.40;;;8.07;;
22490;SDS011;11412;50.802;4.350;2023-05-10T14:51:40;9.48;;;8.52;;
22490;SDS011;11412;50.802;4.350;2023-05-10T14:54:06;8.60;;;7.68;;
22490;SDS011;11412;50.802;4.350;2023-05-10T14:56:32;11.32;;;8.35;;
22490;SDS011;11412;50.802;4.350;2023-05-10T14:58:57;11.20;;;8.90;;
22490;SDS011;11412;50.802;4.350;2023-05-10T15:01:24;9.20;;;8.30;;
22490;SDS011;11412;50.802;4.350;2023-05-10T15:03:50;10.98;;;7.82;;
22490;SDS011;11412;50.802;4.350;2023-05-10T15:06:15;8.20;;;7.40;;
22490;SDS011;11412;50.802;4.350;2023-05-10T15:08:41;9.02;;;7.60;;
22490;SDS011;11412;50.802;4.350;2023-05-10T15:11:07;10.13;;;7.95;;
22490;SDS011;11412;50.802;4.350;2023-05-10T15:13:33;8.23;;;7.40;;
22490;SDS011;11412;50.802;4.350;2023-05-10T15:15:58;10.50;;;8.15;;
22490;SDS011;11412;50.802;4.350;2023-05-10T15:18:25;10.07;;;7.93;;
22490;SDS011;11412;50.802;4.350;2023-05-10T15:20:50;6.88;;;5.93;;
22490;SDS011;11412;50.802;4.350;2023-05-10T15:23:16;10.13;;;5.63;;
22490;SDS011;11412;50.802;4.350;2023-05-10T15:25:42;5.93;;;4.20;;
22490;SDS011;11412;50.802;4.350;2023-05-10T15:28:07;8.15;;;4.85;;
22490;SDS011;11412;50.802;4.350;2023-05-10T15:30:33;6.05;;;4.10;;
22490;SDS011;11412;50.802;4.350;2023-05-10T15:32:59;8.30;;;3.47;;
22490;SDS011;11412;50.802;4.350;2023-05-10T15:35:25;3.90;;;2.50;;